createdAt,value
2018-11-05T00:00:39.976Z,52.67
2018-11-05T00:03:09.149Z,53.80
2018-11-05T00:05:38.331Z,56.70
2018-11-05T00:08:07.378Z,59.53
2018-11-05T00:10:52.228Z,60.37
2018-11-05T00:13:21.215Z,60.13
2018-11-05T00:15:50.248Z,55.50
2018-11-05T00:18:19.286Z,52.30
2018-11-05T00:20:48.373Z,52.03
2018-11-05T00:23:17.475Z,56.83
2018-11-05T00:25:46.529Z,59.00
2018-11-05T00:28:15.584Z,56.57
2018-11-05T00:30:44.615Z,65.30
2018-11-05T00:33:13.622Z,58.33
2018-11-05T00:35:42.686Z,67.37
2018-11-05T00:38:11.726Z,58.83
2018-11-05T00:40:40.747Z,66.83
2018-11-05T00:43:09.765Z,65.70
2018-11-05T00:45:38.881Z,69.03
2018-11-05T00:48:07.940Z,69.63
2018-11-05T00:50:37.008Z,65.60
2018-11-05T00:53:06.102Z,68.33
2018-11-05T00:55:35.110Z,68.23
2018-11-05T00:58:04.850Z,67.10
2018-11-05T01:00:33.953Z,69.23
2018-11-05T01:03:03.019Z,68.80
2018-11-05T01:05:32.059Z,61.43
2018-11-05T01:08:01.183Z,54.87
2018-11-05T01:10:30.269Z,65.73
2018-11-05T01:12:59.297Z,67.80
2018-11-05T01:15:28.356Z,64.37
2018-11-05T01:17:57.358Z,63.53
2018-11-05T01:20:26.534Z,62.87
2018-11-05T01:22:55.772Z,63.87
2018-11-05T01:25:24.805Z,56.83
2018-11-05T01:27:53.859Z,56.47
2018-11-05T01:30:23.009Z,60.73
2018-11-05T01:32:52.059Z,58.83
2018-11-05T01:35:21.168Z,54.40
2018-11-05T01:37:50.227Z,60.47
2018-11-05T01:40:19.224Z,57.33
2018-11-05T01:42:48.282Z,57.90
2018-11-05T01:45:17.331Z,54.37
2018-11-05T01:47:46.412Z,53.57
2018-11-05T01:50:16.139Z,54.90
2018-11-05T01:52:45.220Z,52.07
2018-11-05T01:55:14.286Z,55.20
2018-11-05T01:57:43.329Z,53.07
2018-11-05T02:00:15.677Z,57.33
2018-11-05T02:02:45.485Z,60.40
2018-11-05T02:05:14.646Z,56.50
2018-11-05T02:07:44.605Z,55.43
2018-11-05T02:10:16.227Z,54.47
2018-11-05T02:12:45.262Z,54.33
2018-11-05T02:15:14.397Z,52.77
2018-11-05T02:17:44.606Z,50.57
2018-11-05T02:20:14.702Z,47.47
2018-11-05T02:22:43.766Z,44.83
2018-11-05T02:25:13.533Z,50.40
2018-11-05T02:27:42.808Z,51.77
2018-11-05T02:30:17.675Z,50.20
2018-11-05T02:32:47.251Z,48.77
2018-11-05T02:35:17.168Z,43.83
2018-11-05T02:37:46.868Z,49.37
2018-11-05T02:40:18.163Z,49.20
2018-11-05T02:42:47.710Z,49.50
2018-11-05T02:45:17.651Z,45.80
2018-11-05T02:47:46.708Z,43.20
2018-11-05T02:50:16.244Z,42.33
2018-11-05T02:52:45.995Z,47.50
2018-11-05T02:55:15.935Z,45.43
2018-11-05T02:57:45.035Z,47.90
2018-11-05T03:00:16.527Z,44.97
2018-11-05T03:02:45.661Z,43.33
2018-11-05T03:05:17.899Z,46.80
2018-11-05T03:07:47.700Z,44.70
2018-11-05T03:10:16.985Z,45.03
2018-11-05T03:12:46.921Z,39.27
2018-11-05T03:15:17.038Z,42.37
2018-11-05T03:17:46.077Z,40.43
2018-11-05T03:20:15.733Z,43.87
2018-11-05T03:22:45.179Z,44.20
2018-11-05T03:25:14.291Z,45.10
2018-11-05T03:27:43.363Z,47.03
2018-11-05T03:30:16.138Z,45.00
2018-11-05T03:32:45.452Z,45.27
2018-11-05T03:35:14.893Z,47.33
2018-11-05T03:37:44.817Z,46.23
2018-11-05T03:40:14.290Z,43.50
2018-11-05T03:42:43.733Z,46.07
2018-11-05T03:45:13.897Z,42.73
2018-11-05T03:47:43.269Z,44.70
2018-11-05T03:50:15.651Z,40.87
2018-11-05T03:52:45.483Z,43.17
2018-11-05T03:55:15.490Z,42.43
2018-11-05T03:57:44.601Z,38.77
2018-11-05T04:00:14.823Z,40.20
2018-11-05T04:02:43.935Z,41.13
2018-11-05T04:05:12.992Z,40.57
2018-11-05T04:07:42.017Z,40.10
2018-11-05T04:10:12.193Z,41.03
2018-11-05T04:12:41.231Z,43.53
2018-11-05T04:15:10.742Z,42.17
2018-11-05T04:17:39.884Z,39.37
2018-11-05T04:20:11.551Z,40.97
2018-11-05T04:22:41.042Z,46.30
2018-11-05T04:25:10.175Z,45.83
2018-11-05T04:27:39.234Z,48.47
2018-11-05T04:30:11.829Z,52.47
2018-11-05T04:32:41.365Z,47.77
2018-11-05T04:35:10.934Z,47.43
2018-11-05T04:37:40.019Z,46.03
2018-11-05T04:40:10.190Z,47.07
2018-11-05T04:42:39.352Z,48.73
2018-11-05T04:45:10.431Z,47.23
2018-11-05T04:47:39.683Z,46.33
2018-11-05T04:50:10.434Z,42.83
2018-11-05T04:52:40.255Z,47.07
2018-11-05T04:55:09.358Z,42.07
2018-11-05T04:57:38.541Z,45.53
2018-11-05T05:00:12.998Z,43.57
2018-11-05T05:02:42.371Z,43.77
2018-11-05T05:05:12.705Z,44.20
2018-11-05T05:07:42.015Z,43.53
2018-11-05T05:10:11.174Z,45.70
2018-11-05T05:12:41.315Z,44.20
2018-11-05T05:15:11.039Z,44.47
2018-11-05T05:17:40.544Z,46.17
2018-11-05T05:20:12.676Z,39.70
2018-11-05T05:22:42.044Z,46.47
2018-11-05T05:25:10.909Z,44.23
2018-11-05T05:27:40.214Z,42.67
2018-11-05T05:30:14.215Z,44.90
2018-11-05T05:32:43.664Z,46.90
2018-11-05T05:35:12.751Z,45.63
2018-11-05T05:37:42.415Z,45.70
2018-11-05T05:40:11.512Z,47.20
2018-11-05T05:42:40.906Z,46.17
2018-11-05T05:45:11.057Z,47.80
2018-11-05T05:47:40.654Z,49.93
2018-11-05T05:50:17.304Z,47.97
2018-11-05T05:52:48.259Z,45.57
2018-11-05T05:55:17.354Z,42.37
2018-11-05T05:57:46.402Z,42.73
2018-11-05T06:00:16.718Z,45.67
2018-11-05T06:02:45.821Z,45.03
2018-11-05T06:05:15.365Z,43.20
2018-11-05T06:07:44.497Z,44.27
2018-11-05T06:10:14.439Z,41.13
2018-11-05T06:12:43.479Z,42.23
2018-11-05T06:15:14.157Z,42.93
2018-11-05T06:17:43.204Z,41.57
2018-11-05T06:20:18.902Z,39.83
2018-11-05T06:22:48.970Z,41.07
2018-11-05T06:25:18.405Z,37.50
2018-11-05T06:27:47.456Z,41.83
2018-11-05T06:30:18.482Z,39.30
2018-11-05T06:32:48.425Z,41.73
2018-11-05T06:35:18.077Z,36.60
2018-11-05T06:37:46.981Z,42.20
2018-11-05T06:40:17.991Z,34.90
2018-11-05T06:42:47.487Z,31.70
2018-11-05T06:45:18.855Z,32.00
2018-11-05T06:47:48.252Z,31.23
2018-11-05T06:50:19.882Z,31.27
2018-11-05T06:52:48.895Z,28.23
2018-11-05T06:55:18.070Z,31.23
2018-11-05T06:57:47.214Z,30.13
2018-11-05T07:00:19.225Z,29.77
2018-11-05T07:02:48.368Z,31.67
2018-11-05T07:05:17.641Z,30.50
2018-11-05T07:07:46.614Z,31.50
2018-11-05T07:10:16.318Z,29.97
2018-11-05T07:12:45.760Z,33.50
2018-11-05T07:15:16.086Z,30.67
2018-11-05T07:17:46.193Z,31.27
2018-11-05T07:20:16.515Z,30.97
2018-11-05T07:22:46.530Z,29.50
2018-11-05T07:25:15.982Z,29.43
2018-11-05T07:27:45.221Z,30.97
2018-11-05T07:30:21.505Z,30.33
2018-11-05T07:32:51.652Z,29.20
2018-11-05T07:35:20.730Z,29.97
2018-11-05T07:37:49.875Z,31.37
2018-11-05T07:40:19.530Z,30.30
2018-11-05T07:42:48.669Z,27.13
2018-11-05T07:45:20.908Z,30.43
2018-11-05T07:47:49.964Z,32.93
2018-11-05T07:50:19.895Z,30.73
2018-11-05T07:52:49.389Z,29.17
2018-11-05T07:55:19.046Z,28.27
2018-11-05T07:57:49.012Z,26.77
2018-11-05T08:00:23.551Z,26.63
2018-11-05T08:02:54.147Z,26.27
2018-11-05T08:05:23.845Z,27.13
2018-11-05T08:07:53.015Z,27.07
2018-11-05T08:10:22.049Z,24.10
2018-11-05T08:12:51.130Z,25.93
2018-11-05T08:15:21.533Z,25.33
2018-11-05T08:17:51.436Z,24.33
2018-11-05T08:20:20.580Z,24.50
2018-11-05T08:22:49.685Z,25.87
2018-11-05T08:25:18.842Z,26.70
2018-11-05T08:27:47.886Z,25.13
2018-11-05T08:30:24.511Z,24.97
2018-11-05T08:32:54.043Z,23.57
2018-11-05T08:35:23.124Z,24.73
2018-11-05T08:37:52.695Z,24.90
2018-11-05T08:40:25.158Z,24.03
2018-11-05T08:42:54.984Z,24.17
2018-11-05T08:45:25.559Z,25.13
2018-11-05T08:47:54.592Z,22.87
2018-11-05T08:50:24.180Z,23.70
2018-11-05T08:52:53.411Z,22.77
2018-11-05T08:55:23.635Z,23.93
2018-11-05T08:57:52.676Z,22.27
2018-11-05T09:00:27.257Z,22.23
2018-11-05T09:02:56.434Z,21.60
2018-11-05T09:05:25.496Z,21.27
2018-11-05T09:07:55.103Z,23.07
2018-11-05T09:10:24.434Z,22.07
2018-11-05T09:12:53.286Z,21.83
2018-11-05T09:15:22.747Z,22.97
2018-11-05T09:17:52.087Z,21.77
2018-11-05T09:20:21.177Z,21.67
2018-11-05T09:22:51.057Z,20.83
2018-11-05T09:25:20.862Z,22.53
2018-11-05T09:27:50.562Z,21.20
2018-11-05T09:30:20.943Z,20.50
2018-11-05T09:32:50.054Z,22.13
2018-11-05T09:35:19.289Z,21.50
2018-11-05T09:37:48.711Z,20.27
2018-11-05T09:40:19.495Z,19.83
2018-11-05T09:42:49.081Z,18.77
2018-11-05T09:45:23.239Z,18.53
2018-11-05T09:47:52.296Z,17.67
2018-11-05T09:50:21.416Z,18.33
2018-11-05T09:52:50.438Z,19.47
2018-11-05T09:55:19.751Z,18.70
2018-11-05T09:57:48.811Z,20.80
2018-11-05T10:00:20.412Z,20.73
2018-11-05T10:02:55.062Z,19.17
2018-11-05T10:05:24.159Z,19.00
2018-11-05T10:07:53.874Z,19.43
2018-11-05T10:10:23.074Z,19.30
2018-11-05T10:12:52.066Z,19.57
2018-11-05T10:15:21.180Z,18.67
2018-11-05T10:17:50.252Z,19.10
2018-11-05T10:20:20.636Z,17.33
2018-11-05T10:22:49.743Z,18.10
2018-11-05T10:25:19.154Z,17.37
2018-11-05T10:27:48.902Z,18.73
2018-11-05T10:30:21.377Z,16.43
2018-11-05T10:32:51.077Z,17.27
2018-11-05T10:35:20.266Z,20.17
2018-11-05T10:37:49.435Z,19.73
2018-11-05T10:40:19.338Z,19.10
2018-11-05T10:42:48.352Z,19.53
2018-11-05T10:45:18.205Z,18.03
2018-11-05T10:47:47.378Z,20.10
2018-11-05T10:50:17.408Z,19.93
2018-11-05T10:52:47.971Z,20.50
2018-11-05T10:55:17.208Z,19.17
2018-11-05T10:57:46.627Z,20.87
2018-11-05T11:00:25.673Z,21.20
2018-11-05T11:03:00.192Z,22.33
2018-11-05T11:05:30.180Z,22.60
2018-11-05T11:08:00.078Z,22.73
2018-11-05T11:10:29.729Z,21.73
2018-11-05T11:12:59.623Z,21.97
2018-11-05T11:15:28.750Z,22.10
2018-11-05T11:17:58.145Z,20.77
2018-11-05T11:20:27.290Z,19.63
2018-11-05T11:22:56.362Z,20.90
2018-11-05T11:25:25.441Z,21.27
2018-11-05T11:27:54.615Z,19.60
2018-11-05T11:30:23.511Z,20.33
2018-11-05T11:32:53.250Z,22.13
2018-11-05T11:35:22.395Z,22.60
2018-11-05T11:37:51.484Z,21.77
2018-11-05T11:40:22.551Z,22.87
2018-11-05T11:42:51.724Z,24.03
2018-11-05T11:45:21.815Z,22.37
2018-11-05T11:47:50.958Z,25.03
2018-11-05T11:50:20.314Z,23.27
2018-11-05T11:52:49.752Z,26.03
2018-11-05T11:55:20.809Z,25.47
2018-11-05T11:57:49.854Z,25.03
2018-11-05T12:00:23.707Z,24.13
2018-11-05T12:02:53.339Z,25.00
2018-11-05T12:05:22.568Z,24.27
2018-11-05T12:07:51.442Z,25.10
2018-11-05T12:10:23.537Z,25.80
2018-11-05T12:12:52.638Z,26.03
2018-11-05T12:15:22.385Z,25.77
2018-11-05T12:17:52.351Z,23.63
2018-11-05T12:20:22.773Z,26.30
2018-11-05T12:22:52.321Z,24.50
2018-11-05T12:25:21.478Z,25.87
2018-11-05T12:27:50.859Z,26.77
2018-11-05T12:30:21.252Z,25.77
2018-11-05T12:32:51.312Z,24.93
2018-11-05T12:35:20.482Z,25.93
2018-11-05T12:37:50.978Z,22.93
2018-11-05T12:40:20.943Z,25.70
2018-11-05T12:42:50.763Z,23.43
2018-11-05T12:45:19.818Z,25.53
2018-11-05T12:47:48.865Z,26.60
2018-11-05T12:50:20.074Z,25.23
2018-11-05T12:52:50.091Z,27.10
2018-11-05T12:55:19.255Z,23.97
2018-11-05T12:57:48.595Z,23.73
2018-11-05T13:00:21.986Z,25.80
2018-11-05T13:02:54.976Z,25.90
2018-11-05T13:05:26.010Z,24.53
2018-11-05T13:07:55.070Z,25.67
2018-11-05T13:10:24.485Z,26.93
2018-11-05T13:12:53.601Z,22.90
2018-11-05T13:15:22.868Z,26.80
2018-11-05T13:17:52.531Z,26.87
2018-11-05T13:20:22.543Z,26.30
2018-11-05T13:22:51.735Z,25.30
2018-11-05T13:25:20.900Z,23.50
2018-11-05T13:27:50.865Z,25.87
2018-11-05T13:30:20.006Z,26.00
2018-11-05T13:32:49.085Z,26.30
2018-11-05T13:35:19.274Z,26.17
2018-11-05T13:37:48.759Z,27.03
2018-11-05T13:40:21.645Z,31.80
2018-11-05T13:42:51.277Z,30.53
2018-11-05T13:45:21.046Z,30.70
2018-11-05T13:47:50.960Z,31.40
2018-11-05T13:50:19.310Z,31.70
2018-11-05T13:52:48.267Z,31.60
2018-11-05T13:55:17.416Z,31.43
2018-11-05T13:57:47.548Z,29.90
2018-11-05T14:00:17.818Z,32.53
2018-11-05T14:02:46.995Z,34.07
2018-11-05T14:05:16.071Z,30.90
2018-11-05T14:07:45.162Z,33.47
2018-11-05T14:10:19.398Z,30.97
2018-11-05T14:12:49.031Z,33.00
2018-11-05T14:15:18.173Z,35.37
2018-11-05T14:17:49.193Z,35.43
2018-11-05T14:20:19.429Z,36.27
2018-11-05T14:22:48.618Z,33.67
2018-11-05T14:25:18.911Z,34.17
2018-11-05T14:27:49.443Z,34.13
2018-11-05T14:30:18.884Z,31.93
2018-11-05T14:32:48.957Z,32.53
2018-11-05T14:35:18.120Z,33.87
2018-11-05T14:37:47.191Z,33.37
2018-11-05T14:40:17.258Z,32.00
2018-11-05T14:42:46.413Z,33.70
2018-11-05T14:45:16.775Z,32.13
2018-11-05T14:47:46.333Z,33.33
2018-11-05T14:50:17.440Z,36.97
2018-11-05T14:52:47.051Z,35.23
2018-11-05T14:55:18.384Z,35.47
2018-11-05T14:57:48.897Z,36.93
2018-11-05T15:00:23.624Z,39.07
2018-11-05T15:02:53.011Z,38.83
2018-11-05T15:05:22.090Z,36.63
2018-11-05T15:07:51.998Z,38.10
2018-11-05T15:10:22.438Z,39.40
2018-11-05T15:12:51.537Z,37.50
2018-11-05T15:15:21.289Z,39.07
2018-11-05T15:17:50.331Z,39.23
2018-11-05T15:20:20.868Z,38.50
2018-11-05T15:22:49.949Z,37.33
2018-11-05T15:25:19.978Z,40.70
2018-11-05T15:27:49.269Z,39.73
2018-11-05T15:30:20.479Z,34.87
2018-11-05T15:32:50.593Z,37.00
2018-11-05T15:35:19.661Z,37.27
2018-11-05T15:37:48.747Z,39.40
2018-11-05T15:40:19.150Z,39.70
2018-11-05T15:42:48.307Z,41.37
2018-11-05T15:45:18.911Z,42.80
2018-11-05T15:47:47.987Z,35.97
2018-11-05T15:50:19.111Z,38.47
2018-11-05T15:52:49.156Z,42.17
2018-11-05T15:55:17.959Z,43.90
2018-11-05T15:57:47.100Z,41.43
2018-11-05T16:00:21.673Z,37.77
2018-11-05T16:02:52.279Z,39.80
2018-11-05T16:05:21.420Z,38.10
2018-11-05T16:07:50.514Z,39.53
2018-11-05T16:10:19.820Z,40.20
2018-11-05T16:12:49.305Z,40.43
2018-11-05T16:15:18.516Z,42.80
2018-11-05T16:17:47.548Z,43.07
2018-11-05T16:20:17.872Z,41.20
2018-11-05T16:22:48.027Z,40.40
2018-11-05T16:25:17.160Z,42.60
2018-11-05T16:27:46.267Z,41.70
2018-11-05T16:30:16.780Z,43.13
2018-11-05T16:32:46.486Z,44.37
2018-11-05T16:35:15.553Z,43.00
2018-11-05T16:37:44.657Z,43.03
2018-11-05T16:40:15.102Z,41.53
2018-11-05T16:42:45.086Z,44.27
2018-11-05T16:45:14.247Z,40.03
2018-11-05T16:47:43.802Z,42.93
2018-11-05T16:50:16.705Z,44.93
2018-11-05T16:52:53.290Z,43.43
2018-11-05T16:55:24.314Z,40.47
2018-11-05T16:57:53.738Z,39.60
2018-11-05T17:00:22.779Z,45.13
2018-11-05T17:02:51.860Z,42.30
2018-11-05T17:05:20.917Z,44.70
2018-11-05T17:07:49.955Z,42.10
2018-11-05T17:10:19.065Z,42.53
2018-11-05T17:12:48.129Z,44.80
2018-11-05T17:15:17.434Z,41.93
2018-11-05T17:17:46.659Z,46.53
2018-11-05T17:20:16.971Z,41.77
2018-11-05T17:22:46.059Z,38.97
2018-11-05T17:25:15.682Z,42.10
2018-11-05T17:27:45.479Z,43.67
2018-11-05T17:30:17.665Z,45.10
2018-11-05T17:32:46.796Z,47.53
2018-11-05T17:35:16.157Z,46.00
2018-11-05T17:37:45.724Z,44.40
2018-11-05T17:40:16.197Z,48.67
2018-11-05T17:42:45.231Z,47.47
2018-11-05T17:45:15.628Z,45.37
2018-11-05T17:47:45.945Z,45.27
2018-11-05T17:50:19.303Z,47.97
2018-11-05T17:52:48.454Z,47.63
2018-11-05T17:55:17.570Z,50.13
2018-11-05T17:57:47.646Z,52.27
2018-11-05T18:00:18.142Z,51.77
2018-11-05T18:02:48.100Z,49.57
2018-11-05T18:05:17.251Z,49.10
2018-11-05T18:07:53.558Z,52.77
2018-11-05T18:10:23.063Z,51.17
2018-11-05T18:12:53.250Z,49.13
2018-11-05T18:15:22.561Z,52.33
2018-11-05T18:17:51.861Z,52.90
2018-11-05T18:20:38.726Z,52.83
2018-11-05T18:23:10.107Z,52.83
2018-11-05T18:25:39.849Z,51.00
2018-11-05T18:28:08.966Z,51.97
2018-11-05T18:30:38.127Z,54.17
2018-11-05T18:33:07.387Z,51.47
2018-11-05T18:35:37.654Z,51.40
2018-11-05T18:38:06.861Z,50.77
2018-11-05T18:40:36.500Z,52.47
2018-11-05T18:43:06.877Z,51.63
2018-11-05T18:45:36.053Z,54.00
2018-11-05T18:48:05.109Z,51.00
2018-11-05T18:50:34.178Z,55.10
2018-11-05T18:53:03.424Z,55.17
2018-11-05T18:55:32.511Z,52.03
2018-11-05T18:58:01.620Z,58.07
2018-11-05T19:00:30.689Z,54.80
2018-11-05T19:02:59.856Z,54.07
2018-11-05T19:05:29.679Z,54.03
2018-11-05T19:07:58.776Z,55.43
2018-11-05T19:10:28.092Z,57.57
2018-11-05T19:12:57.255Z,57.70
2018-11-05T19:15:26.326Z,55.90
2018-11-05T19:17:55.422Z,54.70
2018-11-05T19:20:24.571Z,51.87
2018-11-05T19:22:53.781Z,54.13
2018-11-05T19:25:22.775Z,50.70
2018-11-05T19:27:51.939Z,52.47
2018-11-05T19:30:22.684Z,52.83
2018-11-05T19:32:51.811Z,51.33
2018-11-05T19:35:20.936Z,48.50
2018-11-05T19:37:50.703Z,47.27
2018-11-05T19:40:20.209Z,51.43
2018-11-05T19:42:49.825Z,47.93
2018-11-05T19:45:20.060Z,48.30
2018-11-05T19:47:49.135Z,53.73
2018-11-05T19:50:19.552Z,52.40
2018-11-05T19:52:49.997Z,56.73
2018-11-05T19:55:19.630Z,53.90
2018-11-05T19:57:54.194Z,54.53
2018-11-05T20:00:27.360Z,54.07
2018-11-05T20:02:57.451Z,55.07
2018-11-05T20:05:26.565Z,52.47
2018-11-05T20:07:57.434Z,53.80
2018-11-05T20:10:26.643Z,51.50
2018-11-05T20:12:55.687Z,52.27
2018-11-05T20:15:24.766Z,52.83
2018-11-05T20:17:54.881Z,52.57
2018-11-05T20:20:25.712Z,52.40
2018-11-05T20:22:54.846Z,53.57
2018-11-05T20:25:23.824Z,49.53
2018-11-05T20:27:52.895Z,51.23
2018-11-05T20:30:23.331Z,54.70
2018-11-05T20:32:53.784Z,52.53
2018-11-05T20:35:22.555Z,51.13
2018-11-05T20:37:51.592Z,52.60
2018-11-05T20:40:21.431Z,51.10
2018-11-05T20:42:51.274Z,50.40
2018-11-05T20:45:21.397Z,54.20
2018-11-05T20:47:50.455Z,53.00
2018-11-05T20:50:19.479Z,57.53
2018-11-05T20:52:48.494Z,53.20
2018-11-05T20:55:17.970Z,52.33
2018-11-05T20:57:47.179Z,55.03
2018-11-05T21:00:18.448Z,54.07
2018-11-05T21:02:47.658Z,50.43
2018-11-05T21:05:16.796Z,51.67
2018-11-05T21:07:45.801Z,51.73
2018-11-05T21:10:16.075Z,49.10
2018-11-05T21:12:45.404Z,50.33
2018-11-05T21:15:22.124Z,49.37
2018-11-05T21:17:52.811Z,50.60
2018-11-05T21:20:21.916Z,48.10
2018-11-05T21:22:51.201Z,51.47
2018-11-05T21:25:20.103Z,51.13
2018-11-05T21:27:49.138Z,46.63
2018-11-05T21:30:19.453Z,54.23
2018-11-05T21:32:48.583Z,54.77
2018-11-05T21:35:18.885Z,51.00
2018-11-05T21:37:47.961Z,51.10
2018-11-05T21:40:17.883Z,49.83
2018-11-05T21:42:46.951Z,50.33
2018-11-05T21:45:16.490Z,47.83
2018-11-05T21:47:45.973Z,48.43
2018-11-05T21:50:16.534Z,44.70
2018-11-05T21:52:45.936Z,43.83
2018-11-05T21:55:15.047Z,48.70
2018-11-05T21:57:45.394Z,50.47
2018-11-05T22:00:18.427Z,48.70
2018-11-05T22:02:53.085Z,49.97
2018-11-05T22:05:22.326Z,47.90
2018-11-05T22:07:51.407Z,49.73
2018-11-05T22:10:20.524Z,47.07
2018-11-05T22:12:49.761Z,48.63
2018-11-05T22:15:18.934Z,50.37
2018-11-05T22:17:47.934Z,52.13
2018-11-05T22:20:17.081Z,54.97
2018-11-05T22:22:46.179Z,55.30
2018-11-05T22:25:15.199Z,56.70
2018-11-05T22:27:44.256Z,56.57
2018-11-05T22:30:13.363Z,58.37
2018-11-05T22:32:42.489Z,54.30
2018-11-05T22:35:11.649Z,52.60
2018-11-05T22:37:40.813Z,52.43
2018-11-05T22:40:12.724Z,54.60
2018-11-05T22:42:41.938Z,50.60
2018-11-05T22:45:12.649Z,53.27
2018-11-05T22:47:42.324Z,56.13
2018-11-05T22:50:11.484Z,50.67
2018-11-05T22:52:41.382Z,51.00
2018-11-05T22:55:10.517Z,55.83
2018-11-05T22:57:39.624Z,51.23
2018-11-05T23:00:21.951Z,56.00
2018-11-05T23:03:54.317Z,52.73
2018-11-05T23:06:23.436Z,53.63
2018-11-05T23:08:52.493Z,54.90
2018-11-05T23:11:21.638Z,53.60
2018-11-05T23:13:50.824Z,55.33
2018-11-05T23:16:19.887Z,54.60
2018-11-05T23:18:48.938Z,56.83
2018-11-05T23:21:18.024Z,53.93
2018-11-05T23:23:47.068Z,55.17
2018-11-05T23:26:16.272Z,51.17
2018-11-05T23:28:45.361Z,50.40
2018-11-05T23:31:14.466Z,55.30
2018-11-05T23:33:43.636Z,56.87
2018-11-05T23:36:12.731Z,55.60
2018-11-05T23:38:41.849Z,54.63
2018-11-05T23:41:10.929Z,55.83
2018-11-05T23:43:40.013Z,51.33
2018-11-05T23:46:09.077Z,53.87
2018-11-05T23:48:38.204Z,53.17
2018-11-05T23:51:07.272Z,49.80
2018-11-05T23:53:36.323Z,52.63
2018-11-05T23:56:05.465Z,58.03
2018-11-05T23:58:34.495Z,56.53
